createdAt,value
2018-07-22T00:00:16.118Z,72.77
2018-07-22T00:02:44.764Z,72.69
2018-07-22T00:05:13.485Z,71.77
2018-07-22T00:07:42.170Z,73.26
2018-07-22T00:10:20.892Z,72.52
2018-07-22T00:12:49.562Z,72.16
2018-07-22T00:15:18.261Z,71.72
2018-07-22T00:17:46.945Z,72.28
2018-07-22T00:20:15.529Z,73.76
2018-07-22T00:22:44.420Z,72.34
2018-07-22T00:25:13.059Z,72.41
2018-07-22T00:27:41.615Z,73.59
2018-07-22T00:30:10.686Z,72.21
2018-07-22T00:32:41.006Z,72.87
2018-07-22T00:35:10.359Z,73.00
2018-07-22T00:37:39.556Z,72.79
2018-07-22T00:40:09.620Z,73.86
2018-07-22T00:42:38.862Z,73.48
2018-07-22T00:45:10.061Z,73.21
2018-07-22T00:47:38.850Z,73.55
2018-07-22T00:50:07.638Z,74.48
2018-07-22T00:52:36.542Z,73.15
2018-07-22T00:55:05.459Z,74.07
2018-07-22T00:57:34.046Z,73.81
2018-07-22T01:00:03.305Z,73.75
2018-07-22T01:02:31.845Z,73.42
2018-07-22T01:05:00.407Z,73.51
2018-07-22T01:07:29.050Z,74.16
2018-07-22T01:09:57.632Z,74.33
2018-07-22T01:12:26.319Z,74.18
2018-07-22T01:14:55.006Z,73.29
2018-07-22T01:17:23.548Z,73.87
2018-07-22T01:19:52.107Z,73.90
2018-07-22T01:22:21.471Z,73.97
2018-07-22T01:24:50.629Z,74.23
2018-07-22T01:27:19.312Z,74.40
2018-07-22T01:29:47.991Z,74.54
2018-07-22T01:32:16.621Z,73.89
2018-07-22T01:34:45.201Z,73.28
2018-07-22T01:37:13.886Z,73.26
2018-07-22T01:39:42.536Z,73.96
2018-07-22T01:42:11.265Z,73.29
2018-07-22T01:44:39.898Z,72.72
2018-07-22T01:47:08.699Z,72.70
2018-07-22T01:49:37.314Z,73.38
2018-07-22T01:52:05.975Z,72.93
2018-07-22T01:54:34.583Z,72.67
2018-07-22T01:57:03.083Z,72.44
2018-07-22T01:59:31.683Z,72.30
2018-07-22T02:02:00.337Z,72.92
2018-07-22T02:04:28.912Z,72.23
2018-07-22T02:06:57.700Z,73.50
2018-07-22T02:09:26.386Z,74.11
2018-07-22T02:11:55.072Z,73.66
2018-07-22T02:14:23.690Z,72.54
2018-07-22T02:16:52.238Z,71.28
2018-07-22T02:19:20.848Z,70.42
2018-07-22T02:21:49.467Z,70.17
2018-07-22T02:24:18.031Z,69.87
2018-07-22T02:26:46.586Z,70.31
2018-07-22T02:29:15.252Z,69.42
2018-07-22T02:31:43.751Z,69.77
2018-07-22T02:34:12.260Z,69.61
2018-07-22T02:36:40.901Z,69.63
2018-07-22T02:39:11.990Z,69.93
2018-07-22T02:41:40.556Z,70.26
2018-07-22T02:44:09.724Z,69.26
2018-07-22T02:46:38.510Z,69.97
2018-07-22T02:49:07.196Z,71.27
2018-07-22T02:51:35.775Z,71.59
2018-07-22T02:54:04.565Z,72.39
2018-07-22T02:56:33.175Z,71.95
2018-07-22T02:59:04.687Z,71.44
2018-07-22T03:01:35.692Z,70.45
2018-07-22T03:04:04.267Z,69.71
2018-07-22T03:06:33.395Z,69.82
2018-07-22T03:09:01.961Z,69.58
2018-07-22T03:11:30.584Z,69.03
2018-07-22T03:13:59.372Z,69.15
2018-07-22T03:16:27.995Z,69.50
2018-07-22T03:18:56.643Z,70.10
2018-07-22T03:21:25.327Z,70.08
2018-07-22T03:23:53.939Z,69.51
2018-07-22T03:26:22.534Z,69.52
2018-07-22T03:28:51.179Z,69.84
2018-07-22T03:31:19.861Z,70.58
2018-07-22T03:33:48.426Z,70.19
2018-07-22T03:36:17.028Z,70.67
2018-07-22T03:38:45.712Z,70.41
2018-07-22T03:41:14.603Z,71.09
2018-07-22T03:43:43.289Z,70.85
2018-07-22T03:46:12.589Z,70.80
2018-07-22T03:48:41.228Z,70.28
2018-07-22T03:51:09.815Z,70.62
2018-07-22T03:53:38.379Z,71.05
2018-07-22T03:56:07.021Z,70.55
2018-07-22T03:58:35.774Z,71.42
2018-07-22T04:01:04.415Z,71.41
2018-07-22T04:03:33.079Z,71.11
2018-07-22T04:06:01.763Z,71.85
2018-07-22T04:08:30.550Z,71.85
2018-07-22T04:10:59.132Z,72.46
2018-07-22T04:13:27.989Z,72.26
2018-07-22T04:15:56.608Z,72.40
2018-07-22T04:18:25.233Z,72.39
2018-07-22T04:20:53.999Z,71.91
2018-07-22T04:23:22.558Z,72.45
2018-07-22T04:25:51.143Z,72.67
2018-07-22T04:28:19.699Z,72.45
2018-07-22T04:30:48.922Z,72.91
2018-07-22T04:33:17.564Z,72.26
2018-07-22T04:35:46.199Z,72.04
2018-07-22T04:38:14.877Z,72.05
2018-07-22T04:40:43.485Z,71.68
2018-07-22T04:43:12.071Z,71.32
2018-07-22T04:45:40.727Z,71.94
2018-07-22T04:48:09.514Z,71.26
2018-07-22T04:50:38.150Z,71.42
2018-07-22T04:53:06.784Z,70.43
2018-07-22T04:55:35.364Z,70.45
2018-07-22T04:58:03.894Z,70.10
2018-07-22T05:00:32.531Z,70.42
2018-07-22T05:03:01.113Z,70.80
2018-07-22T05:05:30.413Z,69.87
2018-07-22T05:07:58.946Z,69.55
2018-07-22T05:10:27.565Z,70.40
2018-07-22T05:12:56.826Z,70.22
2018-07-22T05:15:25.464Z,69.87
2018-07-22T05:17:54.089Z,70.31
2018-07-22T05:20:22.729Z,70.22
2018-07-22T05:22:51.355Z,69.62
2018-07-22T05:25:20.049Z,70.21
2018-07-22T05:27:48.689Z,70.00
2018-07-22T05:30:18.133Z,70.14
2018-07-22T05:32:46.670Z,70.43
2018-07-22T05:35:15.316Z,70.38
2018-07-22T05:37:43.937Z,70.27
2018-07-22T05:40:12.725Z,70.02
2018-07-22T05:42:41.309Z,69.77
2018-07-22T05:45:09.992Z,69.30
2018-07-22T05:47:38.677Z,69.18
2018-07-22T05:50:07.543Z,68.59
2018-07-22T05:52:36.460Z,68.79
2018-07-22T05:55:05.097Z,69.21
2018-07-22T05:57:33.689Z,68.67
2018-07-22T06:00:02.223Z,68.48
2018-07-22T06:02:30.895Z,68.77
2018-07-22T06:04:59.576Z,68.71
2018-07-22T06:07:28.195Z,68.16
2018-07-22T06:09:56.771Z,68.28
2018-07-22T06:12:25.427Z,68.42
2018-07-22T06:14:54.012Z,68.59
2018-07-22T06:17:22.631Z,68.26
2018-07-22T06:19:51.158Z,67.63
2018-07-22T06:22:19.663Z,67.69
2018-07-22T06:24:48.191Z,67.95
2018-07-22T06:27:16.842Z,68.31
2018-07-22T06:29:45.508Z,67.61
2018-07-22T06:32:14.091Z,68.08
2018-07-22T06:34:42.733Z,67.39
2018-07-22T06:37:11.358Z,67.78
2018-07-22T06:39:39.945Z,66.88
2018-07-22T06:42:08.834Z,67.10
2018-07-22T06:44:37.517Z,67.51
2018-07-22T06:47:06.143Z,66.34
2018-07-22T06:49:34.752Z,66.61
2018-07-22T06:52:03.368Z,67.02
2018-07-22T06:54:32.156Z,66.86
2018-07-22T06:57:00.671Z,66.92
2018-07-22T06:59:29.425Z,66.49
2018-07-22T07:01:58.114Z,66.11
2018-07-22T07:04:26.795Z,65.47
2018-07-22T07:06:55.307Z,65.29
2018-07-22T07:09:23.858Z,64.90
2018-07-22T07:11:52.367Z,65.07
2018-07-22T07:14:21.025Z,64.65
2018-07-22T07:16:49.709Z,63.62
2018-07-22T07:19:18.214Z,63.80
2018-07-22T07:21:46.845Z,64.16
2018-07-22T07:24:15.462Z,64.49
2018-07-22T07:26:44.149Z,64.75
2018-07-22T07:29:12.727Z,64.27
2018-07-22T07:31:41.412Z,64.12
2018-07-22T07:34:09.914Z,63.96
2018-07-22T07:36:38.577Z,63.48
2018-07-22T07:39:09.462Z,63.78
2018-07-22T07:41:38.207Z,63.33
2018-07-22T07:44:07.090Z,64.07
2018-07-22T07:46:35.620Z,63.71
2018-07-22T07:49:04.976Z,63.44
2018-07-22T07:51:33.863Z,62.65
2018-07-22T07:54:02.548Z,63.54
2018-07-22T07:56:31.131Z,63.33
2018-07-22T07:58:59.643Z,62.85
2018-07-22T08:01:28.210Z,62.67
2018-07-22T08:03:56.815Z,62.09
2018-07-22T08:06:25.464Z,62.27
2018-07-22T08:08:54.148Z,62.19
2018-07-22T08:11:23.037Z,61.76
2018-07-22T08:13:51.621Z,61.12
2018-07-22T08:16:20.250Z,59.89
2018-07-22T08:18:48.888Z,59.39
2018-07-22T08:21:17.621Z,58.58
2018-07-22T08:23:46.157Z,58.20
2018-07-22T08:26:14.946Z,57.57
2018-07-22T08:28:55.508Z,58.50
2018-07-22T08:31:24.143Z,57.96
2018-07-22T08:33:53.391Z,58.21
2018-07-22T08:36:21.898Z,57.03
2018-07-22T08:38:50.703Z,57.08
2018-07-22T08:41:19.326Z,57.28
2018-07-22T08:43:47.804Z,57.35
2018-07-22T08:46:16.412Z,55.53
2018-07-22T08:48:44.915Z,55.68
2018-07-22T08:51:13.676Z,56.91
2018-07-22T08:53:42.217Z,57.65
2018-07-22T08:56:10.822Z,56.79
2018-07-22T08:58:39.771Z,56.23
2018-07-22T09:01:08.367Z,56.61
2018-07-22T09:03:37.854Z,55.95
2018-07-22T09:06:06.625Z,54.05
2018-07-22T09:08:35.239Z,55.05
2018-07-22T09:11:03.914Z,54.94
2018-07-22T09:13:32.561Z,55.68
2018-07-22T09:16:01.146Z,55.71
2018-07-22T09:18:29.651Z,54.97
2018-07-22T09:20:58.226Z,55.48
2018-07-22T09:23:26.857Z,55.80
2018-07-22T09:25:56.192Z,56.48
2018-07-22T09:28:24.706Z,54.26
2018-07-22T09:30:53.324Z,54.85
2018-07-22T09:33:21.942Z,54.83
2018-07-22T09:35:50.640Z,54.18
2018-07-22T09:38:19.331Z,54.14
2018-07-22T09:40:47.997Z,54.70
2018-07-22T09:43:16.683Z,55.12
2018-07-22T09:45:45.198Z,53.99
2018-07-22T09:48:13.893Z,53.54
2018-07-22T09:50:42.535Z,53.11
2018-07-22T09:53:11.117Z,54.04
2018-07-22T09:55:40.617Z,53.65
2018-07-22T09:58:09.742Z,54.37
2018-07-22T10:00:43.519Z,54.83
2018-07-22T10:03:12.102Z,55.72
2018-07-22T10:05:40.789Z,54.87
2018-07-22T10:08:09.783Z,53.73
2018-07-22T10:10:38.569Z,53.31
2018-07-22T10:13:07.711Z,52.41
2018-07-22T10:15:36.258Z,51.78
2018-07-22T10:18:04.971Z,52.18
2018-07-22T10:20:33.719Z,52.11
2018-07-22T10:23:02.234Z,52.70
2018-07-22T10:25:30.986Z,52.41
2018-07-22T10:27:59.569Z,52.56
2018-07-22T10:30:28.187Z,53.20
2018-07-22T10:32:57.349Z,53.51
2018-07-22T10:35:25.857Z,53.22
2018-07-22T10:37:54.720Z,53.69
2018-07-22T10:40:23.227Z,53.47
2018-07-22T10:42:51.889Z,52.44
2018-07-22T10:45:20.383Z,53.42
2018-07-22T10:47:49.903Z,52.36
2018-07-22T10:50:18.578Z,52.69
2018-07-22T10:52:47.355Z,52.63
2018-07-22T10:55:15.972Z,52.13
2018-07-22T10:57:44.543Z,51.16
2018-07-22T11:00:13.131Z,51.24
2018-07-22T11:02:41.809Z,52.71
2018-07-22T11:05:10.915Z,52.61
2018-07-22T11:07:39.514Z,53.80
2018-07-22T11:10:08.291Z,53.45
2018-07-22T11:12:36.929Z,52.71
2018-07-22T11:15:06.371Z,52.62
2018-07-22T11:17:34.954Z,52.93
2018-07-22T11:20:03.599Z,53.62
2018-07-22T11:22:32.235Z,52.37
2018-07-22T11:25:00.810Z,52.22
2018-07-22T11:27:29.465Z,50.46
2018-07-22T11:29:58.507Z,50.67
2018-07-22T11:32:27.759Z,50.65
2018-07-22T11:34:56.370Z,51.37
2018-07-22T11:37:25.013Z,51.33
2018-07-22T11:39:53.553Z,51.41
2018-07-22T11:42:23.036Z,51.72
2018-07-22T11:44:51.781Z,51.67
2018-07-22T11:47:20.428Z,51.20
2018-07-22T11:49:49.142Z,50.84
2018-07-22T11:52:17.737Z,50.53
2018-07-22T11:54:46.239Z,50.07
2018-07-22T11:57:14.901Z,49.29
2018-07-22T11:59:43.485Z,48.20
2018-07-22T12:02:12.069Z,48.52
2018-07-22T12:04:40.562Z,48.17
2018-07-22T12:07:09.093Z,49.03
2018-07-22T12:09:37.713Z,48.63
2018-07-22T12:12:06.765Z,48.43
2018-07-22T12:14:35.393Z,48.98
2018-07-22T12:17:03.878Z,48.83
2018-07-22T12:19:32.352Z,48.24
2018-07-22T12:22:00.934Z,47.18
2018-07-22T12:24:29.462Z,47.22
2018-07-22T12:26:58.047Z,47.22
2018-07-22T12:29:26.685Z,48.08
2018-07-22T12:31:55.372Z,48.16
2018-07-22T12:34:24.548Z,47.08
2018-07-22T12:36:53.100Z,47.60
2018-07-22T12:39:21.631Z,46.88
2018-07-22T12:41:50.214Z,47.01
2018-07-22T12:44:18.796Z,46.80
2018-07-22T12:46:47.377Z,47.82
2018-07-22T12:49:16.063Z,47.38
2018-07-22T12:51:44.714Z,48.29
2018-07-22T12:54:13.331Z,48.32
2018-07-22T12:56:41.915Z,48.30
2018-07-22T12:59:10.446Z,47.96
2018-07-22T13:01:39.080Z,47.65
2018-07-22T13:04:07.765Z,48.00
2018-07-22T13:06:36.507Z,47.90
2018-07-22T13:09:07.729Z,47.59
2018-07-22T13:11:36.881Z,47.49
2018-07-22T13:14:05.723Z,47.70
2018-07-22T13:16:34.574Z,47.87
2018-07-22T13:19:03.155Z,48.28
2018-07-22T13:21:32.761Z,47.90
2018-07-22T13:24:01.348Z,47.21
2018-07-22T13:26:30.031Z,46.88
2018-07-22T13:28:58.616Z,46.72
2018-07-22T13:31:27.298Z,45.95
2018-07-22T13:33:55.984Z,47.28
2018-07-22T13:36:24.522Z,46.64
2018-07-22T13:38:53.083Z,46.72
2018-07-22T13:41:21.587Z,47.19
2018-07-22T13:43:50.133Z,46.93
2018-07-22T13:46:18.797Z,47.48
2018-07-22T13:48:47.686Z,47.17
2018-07-22T13:51:16.223Z,47.49
2018-07-22T13:53:44.953Z,47.15
2018-07-22T13:56:13.536Z,46.76
2018-07-22T13:58:42.146Z,47.56
2018-07-22T14:01:10.804Z,47.89
2018-07-22T14:03:39.435Z,48.11
2018-07-22T14:06:08.072Z,47.45
2018-07-22T14:08:36.627Z,47.32
2018-07-22T14:11:05.175Z,47.88
2018-07-22T14:13:33.898Z,47.42
2018-07-22T14:16:02.543Z,47.56
2018-07-22T14:18:31.194Z,47.60
2018-07-22T14:20:59.775Z,47.08
2018-07-22T14:23:28.502Z,46.98
2018-07-22T14:25:57.086Z,47.28
2018-07-22T14:28:25.680Z,47.08
2018-07-22T14:30:55.027Z,47.11
2018-07-22T14:33:23.635Z,47.75
2018-07-22T14:35:52.322Z,47.75
2018-07-22T14:38:20.980Z,47.71
2018-07-22T14:40:49.651Z,48.34
2018-07-22T14:43:20.647Z,47.18
2018-07-22T14:45:49.343Z,46.71
2018-07-22T14:48:17.974Z,48.12
2018-07-22T14:50:46.744Z,47.69
2018-07-22T14:53:15.251Z,46.83
2018-07-22T14:55:44.396Z,47.22
2018-07-22T14:58:13.087Z,46.95
2018-07-22T15:00:42.163Z,47.13
2018-07-22T15:03:10.747Z,47.05
2018-07-22T15:05:39.266Z,47.66
2018-07-22T15:08:08.686Z,47.46
2018-07-22T15:10:37.190Z,47.62
2018-07-22T15:13:05.954Z,47.46
2018-07-22T15:15:34.574Z,46.50
2018-07-22T15:18:03.134Z,47.04
2018-07-22T15:20:31.638Z,47.22
2018-07-22T15:23:00.204Z,47.74
2018-07-22T15:25:28.819Z,47.19
2018-07-22T15:27:57.348Z,47.87
2018-07-22T15:30:25.934Z,47.79
2018-07-22T15:32:54.558Z,47.56
2018-07-22T15:35:23.200Z,48.23
2018-07-22T15:37:51.887Z,47.73
2018-07-22T15:40:20.577Z,48.19
2018-07-22T15:42:49.215Z,47.55
2018-07-22T15:45:17.838Z,47.96
2018-07-22T15:47:46.462Z,48.38
2018-07-22T15:50:15.108Z,48.54
2018-07-22T15:52:43.628Z,48.52
2018-07-22T15:55:12.310Z,48.09
2018-07-22T15:57:40.958Z,48.18
2018-07-22T16:00:10.256Z,48.02
2018-07-22T16:02:39.196Z,47.61
2018-07-22T16:05:08.407Z,47.69
2018-07-22T16:07:37.543Z,48.24
2018-07-22T16:10:06.534Z,48.07
2018-07-22T16:12:35.062Z,48.28
2018-07-22T16:15:03.802Z,48.38
2018-07-22T16:17:32.300Z,48.69
2018-07-22T16:20:00.917Z,49.03
2018-07-22T16:22:29.502Z,49.62
2018-07-22T16:24:58.132Z,49.32
2018-07-22T16:27:26.715Z,49.60
2018-07-22T16:29:55.379Z,49.96
2018-07-22T16:32:24.235Z,50.25
2018-07-22T16:34:52.748Z,50.56
2018-07-22T16:37:21.356Z,49.65
2018-07-22T16:39:49.982Z,48.89
2018-07-22T16:42:18.623Z,48.94
2018-07-22T16:44:48.027Z,48.11
2018-07-22T16:47:16.636Z,49.18
2018-07-22T16:49:45.346Z,48.87
2018-07-22T16:52:13.879Z,48.78
2018-07-22T16:54:42.498Z,48.97
2018-07-22T16:57:11.102Z,49.46
2018-07-22T16:59:39.638Z,49.00
2018-07-22T17:02:08.258Z,49.42
2018-07-22T17:04:36.894Z,49.90
2018-07-22T17:07:05.570Z,49.42
2018-07-22T17:09:34.263Z,50.38
2018-07-22T17:12:02.783Z,49.68
2018-07-22T17:14:31.343Z,49.94
2018-07-22T17:16:59.958Z,50.63
2018-07-22T17:19:28.458Z,50.30
2018-07-22T17:21:57.080Z,50.33
2018-07-22T17:24:25.658Z,49.57
2018-07-22T17:26:54.170Z,50.03
2018-07-22T17:29:22.743Z,50.20
2018-07-22T17:31:51.330Z,50.54
2018-07-22T17:34:20.061Z,50.23
2018-07-22T17:36:48.878Z,50.64
2018-07-22T17:39:17.536Z,51.33
2018-07-22T17:41:46.147Z,51.51
2018-07-22T17:44:14.731Z,52.42
2018-07-22T17:46:43.315Z,52.41
2018-07-22T17:49:11.851Z,52.19
2018-07-22T17:51:40.395Z,52.26
2018-07-22T17:54:09.127Z,52.53
2018-07-22T17:56:37.761Z,51.78
2018-07-22T17:59:06.358Z,51.57
2018-07-22T18:01:34.896Z,50.46
2018-07-22T18:04:03.419Z,49.25
2018-07-22T18:06:32.028Z,50.30
2018-07-22T18:09:00.665Z,51.36
2018-07-22T18:11:29.333Z,50.97
2018-07-22T18:13:57.846Z,51.41
2018-07-22T18:16:26.426Z,51.42
2018-07-22T18:18:55.100Z,52.80
2018-07-22T18:21:24.542Z,53.41
2018-07-22T18:23:53.290Z,53.18
2018-07-22T18:26:21.820Z,53.72
2018-07-22T18:28:50.370Z,54.58
2018-07-22T18:31:19.649Z,55.52
2018-07-22T18:33:48.246Z,56.06
2018-07-22T18:36:16.815Z,56.08
2018-07-22T18:38:45.322Z,56.83
2018-07-22T18:41:13.984Z,57.11
2018-07-22T18:43:43.692Z,58.13
2018-07-22T18:46:12.283Z,58.65
2018-07-22T18:48:40.842Z,58.88
2018-07-22T18:51:09.299Z,59.94
2018-07-22T18:53:37.862Z,60.11
2018-07-22T18:56:06.912Z,59.96
2018-07-22T18:58:35.406Z,60.19
2018-07-22T19:01:04.206Z,61.25
2018-07-22T19:03:32.815Z,61.70
2018-07-22T19:06:01.368Z,62.01
2018-07-22T19:08:30.032Z,61.81
2018-07-22T19:10:58.563Z,62.42
2018-07-22T19:13:27.197Z,63.06
2018-07-22T19:15:55.781Z,63.07
2018-07-22T19:18:24.325Z,65.22
2018-07-22T19:20:52.949Z,64.35
2018-07-22T19:23:21.456Z,63.84
2018-07-22T19:25:50.113Z,63.91
2018-07-22T19:28:18.635Z,64.06
2018-07-22T19:30:47.687Z,64.50
2018-07-22T19:33:16.781Z,64.05
2018-07-22T19:35:45.370Z,64.90
2018-07-22T19:38:13.863Z,64.97
2018-07-22T19:40:42.632Z,64.60
2018-07-22T19:43:11.163Z,65.06
2018-07-22T19:45:39.716Z,65.55
2018-07-22T19:48:08.435Z,65.42
2018-07-22T19:50:36.902Z,64.97
2018-07-22T19:53:05.480Z,65.07
2018-07-22T19:55:34.131Z,65.56
2018-07-22T19:58:02.699Z,66.29
2018-07-22T20:00:31.379Z,66.55
2018-07-22T20:03:00.028Z,66.59
2018-07-22T20:05:28.667Z,66.22
2018-07-22T20:07:57.352Z,66.98
2018-07-22T20:10:25.899Z,67.05
2018-07-22T20:12:54.775Z,68.92
2018-07-22T20:15:23.343Z,67.94
2018-07-22T20:17:51.955Z,68.37
2018-07-22T20:20:20.676Z,69.89
2018-07-22T20:22:50.127Z,68.17
2018-07-22T20:25:18.732Z,68.28
2018-07-22T20:27:47.449Z,68.48
2018-07-22T20:30:15.935Z,69.85
2018-07-22T20:32:44.576Z,69.34
2018-07-22T20:35:13.198Z,68.96
2018-07-22T20:37:41.781Z,69.66
2018-07-22T20:40:10.292Z,69.40
2018-07-22T20:42:38.858Z,69.39
2018-07-22T20:45:07.375Z,70.29
2018-07-22T20:47:35.970Z,69.73
2018-07-22T20:50:04.697Z,70.70
2018-07-22T20:52:33.384Z,71.33
2018-07-22T20:55:01.965Z,72.25
2018-07-22T20:57:30.650Z,70.49
2018-07-22T20:59:59.235Z,71.14
2018-07-22T21:02:27.952Z,71.20
2018-07-22T21:04:56.514Z,71.74
2018-07-22T21:07:25.188Z,71.61
2018-07-22T21:09:53.871Z,72.67
2018-07-22T21:12:44.604Z,71.40
2018-07-22T21:15:14.635Z,71.59
2018-07-22T21:17:43.935Z,71.93
2018-07-22T21:20:12.678Z,73.08
2018-07-22T21:22:41.363Z,72.69
2018-07-22T21:25:09.898Z,71.68
2018-07-22T21:27:38.443Z,72.68
2018-07-22T21:30:08.031Z,72.94
2018-07-22T21:32:36.822Z,72.69
2018-07-22T21:35:05.967Z,72.02
2018-07-22T21:37:34.664Z,72.30
2018-07-22T21:40:03.696Z,73.52
2018-07-22T21:42:32.790Z,72.98
2018-07-22T21:45:01.784Z,74.24
2018-07-22T21:47:30.354Z,73.78
2018-07-22T21:49:58.862Z,73.66
2018-07-22T21:52:27.615Z,73.74
2018-07-22T21:54:56.933Z,74.05
2018-07-22T21:57:25.728Z,75.05
2018-07-22T21:59:54.406Z,76.21
2018-07-22T22:02:27.122Z,76.01
2018-07-22T22:04:56.458Z,75.62
2018-07-22T22:07:25.299Z,76.70
2018-07-22T22:09:54.151Z,75.99
2018-07-22T22:12:22.855Z,76.55
2018-07-22T22:14:51.638Z,75.55
2018-07-22T22:17:20.339Z,77.06
2018-07-22T22:19:48.971Z,76.38
2018-07-22T22:22:17.597Z,76.66
2018-07-22T22:24:46.293Z,75.34
2018-07-22T22:27:15.066Z,75.91
2018-07-22T22:29:43.609Z,75.22
2018-07-22T22:32:12.231Z,75.14
2018-07-22T22:34:41.000Z,74.79
2018-07-22T22:37:09.601Z,74.96
2018-07-22T22:39:38.116Z,75.17
2018-07-22T22:42:07.034Z,74.17
2018-07-22T22:44:35.749Z,74.53
2018-07-22T22:47:04.344Z,74.04
2018-07-22T22:49:32.927Z,75.72
2018-07-22T22:52:01.667Z,75.02
2018-07-22T22:54:30.293Z,73.65
2018-07-22T22:56:58.979Z,74.71
2018-07-22T22:59:27.485Z,74.97
2018-07-22T23:01:56.045Z,74.96
2018-07-22T23:04:25.405Z,74.09
2018-07-22T23:06:53.924Z,74.68
2018-07-22T23:09:22.527Z,74.34
2018-07-22T23:11:51.143Z,74.59
2018-07-22T23:14:20.390Z,74.05
2018-07-22T23:16:49.076Z,74.78
2018-07-22T23:19:17.762Z,74.46
2018-07-22T23:21:46.446Z,74.10
2018-07-22T23:24:15.131Z,74.80
2018-07-22T23:26:43.715Z,73.78
2018-07-22T23:29:12.297Z,74.70
2018-07-22T23:31:40.803Z,74.65
2018-07-22T23:34:09.464Z,74.40
2018-07-22T23:36:38.047Z,74.09
2018-07-22T23:39:09.830Z,73.72
2018-07-22T23:41:38.405Z,74.00
2018-07-22T23:44:07.380Z,74.43
2018-07-22T23:46:35.983Z,75.19
2018-07-22T23:49:04.703Z,75.10
2018-07-22T23:51:33.333Z,74.45
2018-07-22T23:54:03.555Z,74.20
2018-07-22T23:56:32.243Z,74.59
2018-07-22T23:59:00.865Z,74.22
